Glostrup, Denmark
Current Conditions -  °F | °C
As of 7:50 AM on Thursday 27 Nov 2014 (Local Time) from EKCH Reporting Station
Broken Clouds Broken Clouds  
Wind Chill: 36°   Ceiling: 2800
Heat Index: 43°   Visibility: 6mi
Dew Point: 37°   Wind: 13mph
Humidity: 81%   Direction: 110°ESE
Pressure: 30.12"   Gusts: NA
Location:  55.67°N, 12.4°E
Report Text: EKCH 270650Z 11011KT 9999 BKN028 06/03 Q1020 NOSIG
Loading
Personal Weather Stations






























Interactive Weather Map New forecast layout! Learn more

10-Day Weather Forecast

Advertisements
Track Severe Weather on mobile